Wenatchee, WA

9:33 AM PDT on October 31, 2014 (GMT -0700)
Ephrata Municipal | Change Station
CLOSE
Current Station
Airport
Location: Ephrata,
Elevation: 1273 ft
Nearby Weather Stations

Elev 1273 ft 47.31 °N, 119.52 °W | Updated 9 minutes ago

Overcast
Overcast
50 °F
Feels Like 50 °F
N
0
Wind Variable Wind from North

Today
High -- | Low -- °F
--% Chance of Precip.
Yesterday
High -- | Low -- °F
Precip. -- in
7:43 AM 5:45 PM
First Quarter, 56% visible
Pressure 29.73 in
Visibility 2.0 miles
Clouds Overcast 100 ft
Dew Point 49 °F
Humidity 96%
Rainfall 0.06 in
Snow Depth Not available.
UV 0 out of 12
Pollen .30 out of 12
Air Quality Not available.
Flu Activity Not available.
SPECI KEPH 311624Z AUTO 00000KT 2SM -RA BR OVC001 10/09 A2973 RMK AO2 RAB20 P0000 T01000094

More Conditions Fewer Conditions

Pressure 29.73 in
Visibility 2.0 miles
Clouds Overcast 100 ft
Dew Point 49 °F
Humidity 96%
Rainfall 0.06 in
Snow Depth Not available.
UV 0 out of 12
Pollen .30 out of 12
Air Quality Not available.
Flu Activity Not available.
SPECI KEPH 311624Z AUTO 00000KT 2SM -RA BR OVC001 10/09 A2973 RMK AO2 RAB20 P0000 T01000094

More Conditions Fewer Conditions

10-Day Weather Forecast

Almanac

Astronomy

Oct. 31, 2014 Rise Set
Actual Time
Civil Twilight
Nautical Twilight
Astronomical Twilight
Moon
Length of Visible Light
Length of Day
Tomorrow will be .
, % of the Moon is Illuminated

Today's Extremes

State Highs State Lows

Community

WunderPhotos

Upload Photos

1,766,656 photos uploaded!

WunderBlogs® & News

Nearby

Air Quality

  Air Quality AQ Index Pollutant
Not available.

Snow Depth

Station Depth Elevation

Earthquake Activity

City Distance Mag. Time & Date
Minimum magnitude displayed is 2.5.

Coastal Water Temperatures

Place Temperature

Nearby Weather Stations